Time;durP1;ratioP1;P1;durP2;ratioP2;P2;SDS_P1;SDS_P2;PMS_P1;PMS_P2;Temp;Humidity;BMP_temperature;BMP_pressure;BME280_temperature;BME280_humidity;BME280_pressure;Samples;Min_cycle;Max_cycle;Signal;HPM_P1;HPM_P2
2023/08/06 00:01:32;;;;;;;;;;;;;;;;;;2201026;59;1967;-26
2023/08/06 00:04:02;;;;;;;;;;;;;;;;;;2201424;58;1956;-26
2023/08/06 00:06:32;;;;;;;;;;;;;;;;;;2200426;66;1717;-26
2023/08/06 00:09:02;;;;;;;;;;;;;;;;;;2200502;66;1926;-26
2023/08/06 00:11:33;;;;;;;;;;;;;;;;;;2201085;59;2367;-26
2023/08/06 00:14:03;;;;;;;;;;;;;;;;;;2199769;66;2061;-26
2023/08/06 00:16:33;;;;;;;;;;;;;;;;;;2200369;59;2639;-26
2023/08/06 00:19:03;;;;;;;;;;;;;;;;;;2200319;66;1885;-26
2023/08/06 00:21:33;;;;;;;;;;;;;;;;;;2200337;66;2147;-26
2023/08/06 00:24:04;;;;;;;;;;;;;;;;;;2200464;66;2127;-26
2023/08/06 00:26:34;;;;;;;;;;;;;;;;;;2200576;66;2150;-26
2023/08/06 00:29:04;;;;;;;;;;;;;;;;;;2200062;66;1862;-26
2023/08/06 00:31:34;;;;;;;;;;;;;;;;;;2203352;59;2781;-26
2023/08/06 00:34:05;;;;;;;;;;;;;;;;;;2200412;59;1764;-26
2023/08/06 00:36:35;;;;;;;;;;;;;;;;;;2199922;66;2532;-26
2023/08/06 00:39:06;;;;;;;;;;;;;;;;;;2197073;66;1917;-26
2023/08/06 00:41:37;;;;;;;;;;;;;;;;;;2199754;66;2675;-26
2023/08/06 00:44:07;;;;;;;;;;;;;;;;;;2199816;66;2592;-26
2023/08/06 00:46:38;;;;;;;;;;;;;;;;;;2200351;59;2446;-26
2023/08/06 00:49:08;;;;;;;;;;;;;;;;;;2200004;66;1808;-26
2023/08/06 00:51:38;;;;;;;;;;;;;;;;;;2200769;59;2732;-26
2023/08/06 00:54:09;;;;;;;;;;;;;;;;;;2200812;58;2176;-26
2023/08/06 00:56:41;;;;;;;;;;;;;;;;;;2200900;59;2004;-25
2023/08/06 00:59:11;;;;;;;;;;;;;;;;;;2200577;66;3033;-25
2023/08/06 01:01:42;;;;;;;;;;;;;;;;;;2200863;59;2000;-26
2023/08/06 01:04:13;;;;;;;;;;;;;;;;;;2200118;59;1729;-26
2023/08/06 01:06:56;;;;;;;;;;;;;;;;;;2200501;66;2117;-25
2023/08/06 01:09:29;;;;;;;;;;;;;;;;;;2201533;66;1989;-25
2023/08/06 01:12:05;;;;;;;;;;;;;;;;;;2202177;59;2022;-26
2023/08/06 01:14:53;;;;;;;;;;;;;;;;;;2200426;66;1366;-25
2023/08/06 01:17:26;;;;;;;;;;;;;;;;;;2200795;66;1944;-26
2023/08/06 01:19:56;;;;;;;;;;;;;;;;;;2200900;66;1462;-25
2023/08/06 01:22:26;;;;;;;;;;;;;;;;;;2200874;66;1792;-25
2023/08/06 01:24:57;;;;;;;;;;;;;;;;;;2200431;59;1513;-26
2023/08/06 01:27:36;;;;;;;;;;;;;;;;;;2200749;66;1705;-26
2023/08/06 01:30:10;;;;;;;;;;;;;;;;;;2200988;66;1319;-25
2023/08/06 01:32:44;;;;;;;;;;;;;;;;;;2200569;58;2087;-26
2023/08/06 01:35:15;;;;;;;;;;;;;;;;;;2200113;66;1246;-25
2023/08/06 01:37:46;;;;;;;;;;;;;;;;;;2201437;66;1937;-25
2023/08/06 01:40:19;;;;;;;;;;;;;;;;;;2200373;66;2200;-25
2023/08/06 01:42:50;;;;;;;;;;;;;;;;;;2202485;66;2943;-25
2023/08/06 01:45:20;;;;;;;;;;;;;;;;;;2199110;59;2628;-25
2023/08/06 01:47:50;;;;;;;;;;;;;;;;;;2201405;66;1824;-25
2023/08/06 01:50:23;;;;;;;;;;;;;;;;;;2200686;59;1878;-25
2023/08/06 01:52:53;;;;;;;;;;;;;;;;;;2201343;58;2665;-26
2023/08/06 01:55:24;;;;;;;;;;;;;;;;;;2201398;59;1984;-25
2023/08/06 01:57:54;;;;;;;;;;;;;;;;;;2201626;66;2277;-25
2023/08/06 02:00:24;;;;;;;;;;;;;;;;;;2201232;59;2552;-25
2023/08/06 02:02:54;;;;;;;;;;;;;;;;;;2200121;66;1669;-25
2023/08/06 02:05:24;;;;;;;;;;;;;;;;;;2200890;58;2849;-25
2023/08/06 02:07:58;;;;;;;;;;;;;;;;;;2197271;66;2033;-25
2023/08/06 02:10:28;;;;;;;;;;;;;;;;;;2201416;66;1743;-25
2023/08/06 02:12:58;;;;;;;;;;;;;;;;;;2199569;59;1856;-25
2023/08/06 02:15:29;;;;;;;;;;;;;;;;;;2200626;66;1883;-25
2023/08/06 02:17:59;;;;;;;;;;;;;;;;;;2200205;66;2624;-25
2023/08/06 02:20:29;;;;;;;;;;;;;;;;;;2200073;66;2640;-25
2023/08/06 02:22:59;;;;;;;;;;;;;;;;;;2201453;66;2165;-26
2023/08/06 02:25:29;;;;;;;;;;;;;;;;;;2200912;59;3171;-26
2023/08/06 02:28:00;;;;;;;;;;;;;;;;;;2200285;66;2365;-26
2023/08/06 02:30:30;;;;;;;;;;;;;;;;;;2201078;59;2262;-25
2023/08/06 02:33:00;;;;;;;;;;;;;;;;;;2202190;58;2245;-25
2023/08/06 02:35:30;;;;;;;;;;;;;;;;;;2200760;66;1850;-25
2023/08/06 02:38:01;;;;;;;;;;;;;;;;;;2202175;66;1937;-25
2023/08/06 02:40:31;;;;;;;;;;;;;;;;;;2200509;66;1960;-25
2023/08/06 02:43:01;;;;;;;;;;;;;;;;;;2200312;66;2094;-25
2023/08/06 02:45:31;;;;;;;;;;;;;;;;;;2199122;59;2732;-25
2023/08/06 02:48:02;;;;;;;;;;;;;;;;;;2200826;66;2680;-25
2023/08/06 02:50:40;;;;;;;;;;;;;;;;;;2200590;59;1802;-25
2023/08/06 02:53:10;;;;;;;;;;;;;;;;;;2201538;58;1572;-25
2023/08/06 02:55:45;;;;;;;;;;;;;;;;;;2200685;59;1880;-25
2023/08/06 02:58:15;;;;;;;;;;;;;;;;;;2200455;66;2085;-25
2023/08/06 03:00:45;;;;;;;;;;;;;;;;;;2201193;59;1874;-25
2023/08/06 03:03:15;;;;;;;;;;;;;;;;;;2199635;66;1650;-25
2023/08/06 03:05:53;;;;;;;;;;;;;;;;;;2200386;58;2274;-25
2023/08/06 03:08:23;;;;;;;;;;;;;;;;;;2200346;66;1767;-25
2023/08/06 03:10:56;;;;;;;;;;;;;;;;;;2200569;66;1770;-25
2023/08/06 03:13:27;;;;;;;;;;;;;;;;;;2200106;59;2555;-25
2023/08/06 03:15:58;;;;;;;;;;;;;;;;;;2199266;66;2394;-25
2023/08/06 03:18:29;;;;;;;;;;;;;;;;;;2200424;66;2009;-25
2023/08/06 03:20:59;;;;;;;;;;;;;;;;;;2199793;66;2012;-25
2023/08/06 03:23:29;;;;;;;;;;;;;;;;;;2199996;66;2761;-25
2023/08/06 03:26:02;;;;;;;;;;;;;;;;;;2200289;59;1750;-25
2023/08/06 03:28:33;;;;;;;;;;;;;;;;;;2201074;66;1943;-25
2023/08/06 03:31:03;;;;;;;;;;;;;;;;;;2200783;59;2201;-25
2023/08/06 03:33:33;;;;;;;;;;;;;;;;;;2200381;58;2250;-25
2023/08/06 03:36:04;;;;;;;;;;;;;;;;;;2200448;66;1975;-25
2023/08/06 03:38:34;;;;;;;;;;;;;;;;;;2201372;66;2141;-25
2023/08/06 03:41:04;;;;;;;;;;;;;;;;;;2200599;66;2907;-25
2023/08/06 03:43:34;;;;;;;;;;;;;;;;;;2200524;60;2169;-25
2023/08/06 03:46:04;;;;;;;;;;;;;;;;;;2199682;59;2665;-25
2023/08/06 03:48:35;;;;;;;;;;;;;;;;;;2200456;66;1993;-25
2023/08/06 03:51:05;;;;;;;;;;;;;;;;;;2198103;59;2919;-25
2023/08/06 03:53:35;;;;;;;;;;;;;;;;;;2201125;58;1908;-25
2023/08/06 03:56:05;;;;;;;;;;;;;;;;;;2200216;59;1993;-25
2023/08/06 03:58:36;;;;;;;;;;;;;;;;;;2201048;66;1334;-25
2023/08/06 04:01:06;;;;;;;;;;;;;;;;;;2200621;59;2625;-25
2023/08/06 04:03:36;;;;;;;;;;;;;;;;;;2200983;66;2547;-25
2023/08/06 04:06:07;;;;;;;;;;;;;;;;;;2202223;66;2070;-25
2023/08/06 04:08:37;;;;;;;;;;;;;;;;;;2200885;66;1829;-25
2023/08/06 04:11:08;;;;;;;;;;;;;;;;;;2200334;66;2342;-25
2023/08/06 04:13:38;;;;;;;;;;;;;;;;;;2200210;59;1885;-25
2023/08/06 04:16:08;;;;;;;;;;;;;;;;;;2199544;66;2371;-25
2023/08/06 04:18:38;;;;;;;;;;;;;;;;;;2200620;66;2348;-25
2023/08/06 04:21:08;;;;;;;;;;;;;;;;;;2200436;66;1900;-25
2023/08/06 04:23:39;;;;;;;;;;;;;;;;;;2201076;66;1622;-25
2023/08/06 04:26:09;;;;;;;;;;;;;;;;;;2200610;59;2189;-25
2023/08/06 04:28:39;;;;;;;;;;;;;;;;;;2204661;66;2000;-25
2023/08/06 04:31:09;;;;;;;;;;;;;;;;;;2200650;66;1884;-25
2023/08/06 04:33:40;;;;;;;;;;;;;;;;;;2201474;58;1911;-25
2023/08/06 04:36:10;;;;;;;;;;;;;;;;;;2200338;59;1936;-25
2023/08/06 04:38:44;;;;;;;;;;;;;;;;;;2200820;66;1787;-25
2023/08/06 04:41:14;;;;;;;;;;;;;;;;;;2200333;66;2361;-25
2023/08/06 04:43:45;;;;;;;;;;;;;;;;;;2200170;66;1677;-25
2023/08/06 04:46:15;;;;;;;;;;;;;;;;;;2200639;59;2449;-25
2023/08/06 04:48:45;;;;;;;;;;;;;;;;;;2202088;60;2318;-22
2023/08/06 04:51:15;;;;;;;;;;;;;;;;;;2200370;59;2013;-23
2023/08/06 04:53:45;;;;;;;;;;;;;;;;;;2199947;58;2487;-23
2023/08/06 04:56:16;;;;;;;;;;;;;;;;;;2200269;59;1992;-22
2023/08/06 04:58:46;;;;;;;;;;;;;;;;;;2200648;66;2869;-23
2023/08/06 05:01:16;;;;;;;;;;;;;;;;;;2199787;59;2119;-23
2023/08/06 05:03:47;;;;;;;;;;;;;;;;;;2200157;59;1813;-22
2023/08/06 05:06:17;;;;;;;;;;;;;;;;;;2201181;66;2415;-22
2023/08/06 05:08:50;;;;;;;;;;;;;;;;;;2200548;66;2444;-23
2023/08/06 05:11:20;;;;;;;;;;;;;;;;;;2200046;59;1894;-23
2023/08/06 05:13:51;;;;;;;;;;;;;;;;;;2200402;59;2080;-23
2023/08/06 05:16:21;;;;;;;;;;;;;;;;;;2200495;66;1940;-23
2023/08/06 05:18:51;;;;;;;;;;;;;;;;;;2201407;66;2626;-23
2023/08/06 05:21:21;;;;;;;;;;;;;;;;;;2199978;66;1853;-23
2023/08/06 05:23:52;;;;;;;;;;;;;;;;;;2200344;66;2072;-23
2023/08/06 05:26:22;;;;;;;;;;;;;;;;;;2199927;59;1294;-23
2023/08/06 05:28:52;;;;;;;;;;;;;;;;;;2200459;66;1228;-25
2023/08/06 05:31:23;;;;;;;;;;;;;;;;;;2200626;66;1710;-26
2023/08/06 05:33:53;;;;;;;;;;;;;;;;;;2201464;59;1903;-25
2023/08/06 05:36:23;;;;;;;;;;;;;;;;;;2200616;66;1916;-25
2023/08/06 05:38:54;;;;;;;;;;;;;;;;;;2200720;66;1551;-25
2023/08/06 05:41:24;;;;;;;;;;;;;;;;;;2200251;66;1700;-25
2023/08/06 05:43:54;;;;;;;;;;;;;;;;;;2200594;66;2180;-25
2023/08/06 05:46:24;;;;;;;;;;;;;;;;;;2200765;59;2788;-25
2023/08/06 05:48:58;;;;;;;;;;;;;;;;;;2199562;66;3104;-25
2023/08/06 05:51:28;;;;;;;;;;;;;;;;;;2201021;59;1785;-26
2023/08/06 05:53:58;;;;;;;;;;;;;;;;;;2200420;58;1826;-25
2023/08/06 05:56:28;;;;;;;;;;;;;;;;;;2200455;59;1947;-25
2023/08/06 05:58:59;;;;;;;;;;;;;;;;;;2200448;59;1662;-25
2023/08/06 06:01:29;;;;;;;;;;;;;;;;;;2201400;59;2452;-25
2023/08/06 06:03:59;;;;;;;;;;;;;;;;;;2201628;58;2426;-25
2023/08/06 06:06:29;;;;;;;;;;;;;;;;;;2201075;66;1841;-26
2023/08/06 06:09:00;;;;;;;;;;;;;;;;;;2200813;66;2560;-25
2023/08/06 06:11:30;;;;;;;;;;;;;;;;;;2201267;59;1993;-26
2023/08/06 06:14:00;;;;;;;;;;;;;;;;;;2199964;60;2128;-25
2023/08/06 06:16:30;;;;;;;;;;;;;;;;;;2200942;66;2428;-25
2023/08/06 06:19:01;;;;;;;;;;;;;;;;;;2200579;66;1994;-25
2023/08/06 06:21:31;;;;;;;;;;;;;;;;;;2201021;66;1777;-25
2023/08/06 06:24:01;;;;;;;;;;;;;;;;;;2199363;59;2497;-25
2023/08/06 06:26:32;;;;;;;;;;;;;;;;;;2200616;66;1882;-25
2023/08/06 06:29:02;;;;;;;;;;;;;;;;;;2200399;66;2059;-25
2023/08/06 06:31:33;;;;;;;;;;;;;;;;;;2199998;59;2736;-25
2023/08/06 06:34:03;;;;;;;;;;;;;;;;;;2199250;58;2488;-25
2023/08/06 06:36:33;;;;;;;;;;;;;;;;;;2200282;66;1933;-25
2023/08/06 06:39:03;;;;;;;;;;;;;;;;;;2199718;66;2269;-25
2023/08/06 06:41:34;;;;;;;;;;;;;;;;;;2200220;66;2250;-25
2023/08/06 06:44:05;;;;;;;;;;;;;;;;;;2200428;66;2544;-25
2023/08/06 06:46:35;;;;;;;;;;;;;;;;;;2199608;59;2498;-25
2023/08/06 06:49:05;;;;;;;;;;;;;;;;;;2199465;66;2279;-25
2023/08/06 06:51:36;;;;;;;;;;;;;;;;;;2200049;59;2500;-25
2023/08/06 06:54:06;;;;;;;;;;;;;;;;;;2196871;58;2612;-25
2023/08/06 06:56:36;;;;;;;;;;;;;;;;;;2200005;59;2724;-25
2023/08/06 06:59:07;;;;;;;;;;;;;;;;;;2198968;66;2476;-25
2023/08/06 07:01:37;;;;;;;;;;;;;;;;;;2200054;59;1962;-25
2023/08/06 07:04:08;;;;;;;;;;;;;;;;;;2199912;59;2701;-25
2023/08/06 07:06:38;;;;;;;;;;;;;;;;;;2200277;66;2958;-25
2023/08/06 07:09:08;;;;;;;;;;;;;;;;;;2199811;66;2412;-25
2023/08/06 07:11:38;;;;;;;;;;;;;;;;;;2201407;59;2528;-25
2023/08/06 07:14:09;;;;;;;;;;;;;;;;;;2200559;66;2612;-25
2023/08/06 07:16:39;;;;;;;;;;;;;;;;;;2201090;66;1936;-25
2023/08/06 07:19:09;;;;;;;;;;;;;;;;;;2200773;66;2665;-25
2023/08/06 07:21:40;;;;;;;;;;;;;;;;;;2201306;66;1711;-25
2023/08/06 07:24:11;;;;;;;;;;;;;;;;;;2201403;59;1763;-25
2023/08/06 07:26:41;;;;;;;;;;;;;;;;;;2200961;66;2453;-25
2023/08/06 07:29:11;;;;;;;;;;;;;;;;;;2199778;66;2119;-25
2023/08/06 07:31:42;;;;;;;;;;;;;;;;;;2201203;59;1919;-25
2023/08/06 07:34:12;;;;;;;;;;;;;;;;;;2201018;66;2693;-25
2023/08/06 07:36:46;;;;;;;;;;;;;;;;;;2200213;66;2011;-25
2023/08/06 07:39:16;;;;;;;;;;;;;;;;;;2200260;66;2538;-25
2023/08/06 07:41:47;;;;;;;;;;;;;;;;;;2201175;59;2017;-25
2023/08/06 07:44:17;;;;;;;;;;;;;;;;;;2200692;59;2596;-25
2023/08/06 07:46:47;;;;;;;;;;;;;;;;;;2200832;66;2977;-25
2023/08/06 07:49:18;;;;;;;;;;;;;;;;;;2200310;59;2276;-25
2023/08/06 07:51:48;;;;;;;;;;;;;;;;;;2201710;59;2455;-25
2023/08/06 07:54:18;;;;;;;;;;;;;;;;;;2200501;58;2225;-25
2023/08/06 07:56:48;;;;;;;;;;;;;;;;;;2201807;59;2021;-25
2023/08/06 07:59:19;;;;;;;;;;;;;;;;;;2200977;66;2448;-25
2023/08/06 08:01:49;;;;;;;;;;;;;;;;;;2200530;59;2486;-25
2023/08/06 08:04:20;;;;;;;;;;;;;;;;;;2200345;58;2735;-25
2023/08/06 08:06:51;;;;;;;;;;;;;;;;;;2201982;66;2594;-25
2023/08/06 08:09:21;;;;;;;;;;;;;;;;;;2199196;66;1807;-25
2023/08/06 08:11:52;;;;;;;;;;;;;;;;;;2200662;59;4020;-25
2023/08/06 08:14:23;;;;;;;;;;;;;;;;;;2201385;66;1798;-25
2023/08/06 08:16:53;;;;;;;;;;;;;;;;;;2200557;66;2008;-25
2023/08/06 08:19:23;;;;;;;;;;;;;;;;;;2200072;66;2700;-25
2023/08/06 08:24:26;;;;;;;;;;;;;;;;;;2208164;59;1768;-22
2023/08/06 08:26:56;;;;;;;;;;;;;;;;;;2210822;59;1775;-22
2023/08/06 08:29:26;;;;;;;;;;;;;;;;;;2213480;66;1939;-22
2023/08/06 08:31:57;;;;;;;;;;;;;;;;;;2211348;59;2662;-22
2023/08/06 08:34:27;;;;;;;;;;;;;;;;;;2210644;66;1853;-22
2023/08/06 08:36:58;;;;;;;;;;;;;;;;;;2210762;66;1959;-22
2023/08/06 08:39:29;;;;;;;;;;;;;;;;;;2211536;66;1977;-22
2023/08/06 08:41:59;;;;;;;;;;;;;;;;;;2207943;66;1882;-22
2023/08/06 08:44:32;;;;;;;;;;;;;;;;;;2210775;58;2112;-22
2023/08/06 08:47:02;;;;;;;;;;;;;;;;;;2208207;67;1810;-22
2023/08/06 08:49:32;;;;;;;;;;;;;;;;;;2211827;66;2131;-22
2023/08/06 08:52:06;;;;;;;;;;;;;;;;;;2210430;59;2316;-22
2023/08/06 08:54:38;;;;;;;;;;;;;;;;;;2208526;59;1843;-22
2023/08/06 08:57:08;;;;;;;;;;;;;;;;;;2207345;59;1977;-22
2023/08/06 08:59:38;;;;;;;;;;;;;;;;;;2209054;66;1466;-22
2023/08/06 09:02:11;;;;;;;;;;;;;;;;;;2210377;59;2952;-21
2023/08/06 09:04:42;;;;;;;;;;;;;;;;;;2211006;59;1842;-21
2023/08/06 09:07:15;;;;;;;;;;;;;;;;;;2207135;66;2714;-21
2023/08/06 09:09:48;;;;;;;;;;;;;;;;;;2211431;66;1627;-23
2023/08/06 09:12:18;;;;;;;;;;;;;;;;;;2211219;59;2256;-23
2023/08/06 09:14:49;;;;;;;;;;;;;;;;;;2211889;66;1759;-23
2023/08/06 09:17:20;;;;;;;;;;;;;;;;;;2211575;66;2386;-23
2023/08/06 09:19:50;;;;;;;;;;;;;;;;;;2212378;66;1756;-23
2023/08/06 09:22:20;;;;;;;;;;;;;;;;;;2207797;59;3168;-23
2023/08/06 09:24:50;;;;;;;;;;;;;;;;;;2211866;66;1496;-23
2023/08/06 09:27:22;;;;;;;;;;;;;;;;;;2211132;59;1957;-23
2023/08/06 09:29:52;;;;;;;;;;;;;;;;;;2211393;66;1809;-23
2023/08/06 09:32:23;;;;;;;;;;;;;;;;;;2211220;59;2288;-23
2023/08/06 09:34:57;;;;;;;;;;;;;;;;;;2211516;66;1971;-23
2023/08/06 09:37:35;;;;;;;;;;;;;;;;;;2210591;66;2388;-23
2023/08/06 09:40:23;;;;;;;;;;;;;;;;;;2211210;66;1952;-23
2023/08/06 09:42:54;;;;;;;;;;;;;;;;;;2211920;66;1209;-23
2023/08/06 09:45:37;;;;;;;;;;;;;;;;;;2210013;59;2207;-23
2023/08/06 09:48:08;;;;;;;;;;;;;;;;;;2211655;66;1435;-23
2023/08/06 09:50:39;;;;;;;;;;;;;;;;;;2208495;59;2304;-22
2023/08/06 09:53:09;;;;;;;;;;;;;;;;;;2209921;59;2582;-22
2023/08/06 09:55:39;;;;;;;;;;;;;;;;;;2211261;59;1934;-22
2023/08/06 09:58:10;;;;;;;;;;;;;;;;;;2210798;66;1931;-23
2023/08/06 10:00:40;;;;;;;;;;;;;;;;;;2211645;59;3025;-23
2023/08/06 10:03:13;;;;;;;;;;;;;;;;;;2211324;66;1916;-23
2023/08/06 10:05:44;;;;;;;;;;;;;;;;;;2210970;59;1976;-23
2023/08/06 10:08:14;;;;;;;;;;;;;;;;;;2211567;66;1729;-23
2023/08/06 10:10:45;;;;;;;;;;;;;;;;;;2211722;66;2571;-23
2023/08/06 10:13:17;;;;;;;;;;;;;;;;;;2210314;59;1962;-22
2023/08/06 10:15:49;;;;;;;;;;;;;;;;;;2208301;66;1946;-22
2023/08/06 10:18:22;;;;;;;;;;;;;;;;;;2210587;66;1992;-23
2023/08/06 10:20:54;;;;;;;;;;;;;;;;;;2211740;66;1611;-23
2023/08/06 10:23:32;;;;;;;;;;;;;;;;;;2211967;59;2421;-23
2023/08/06 10:26:02;;;;;;;;;;;;;;;;;;2211571;66;3302;-22
2023/08/06 10:28:37;;;;;;;;;;;;;;;;;;2212116;66;1832;-22
2023/08/06 10:31:07;;;;;;;;;;;;;;;;;;2211749;59;2753;-22
2023/08/06 10:33:47;;;;;;;;;;;;;;;;;;2211610;59;2158;-22
2023/08/06 10:36:17;;;;;;;;;;;;;;;;;;2210925;66;2373;-23
2023/08/06 10:38:49;;;;;;;;;;;;;;;;;;2212037;66;2053;-22
2023/08/06 10:41:27;;;;;;;;;;;;;;;;;;2211624;59;2787;-22
2023/08/06 10:44:09;;;;;;;;;;;;;;;;;;2210935;66;2515;-22
2023/08/06 10:46:39;;;;;;;;;;;;;;;;;;2211780;58;1660;-22
2023/08/06 10:49:11;;;;;;;;;;;;;;;;;;2211556;66;1968;-22
2023/08/06 10:51:41;;;;;;;;;;;;;;;;;;2210702;59;2538;-22
2023/08/06 10:54:12;;;;;;;;;;;;;;;;;;2209725;59;2744;-22
2023/08/06 10:56:47;;;;;;;;;;;;;;;;;;2211008;59;1933;-22
2023/08/06 10:59:18;;;;;;;;;;;;;;;;;;2211502;63;2372;-22
2023/08/06 11:01:48;;;;;;;;;;;;;;;;;;2211594;59;1880;-22
2023/08/06 11:04:18;;;;;;;;;;;;;;;;;;2210927;59;1797;-22
2023/08/06 11:06:52;;;;;;;;;;;;;;;;;;2211234;66;2148;-22
2023/08/06 11:09:23;;;;;;;;;;;;;;;;;;2211188;66;1746;-22
2023/08/06 11:11:53;;;;;;;;;;;;;;;;;;2212008;58;1425;-22
2023/08/06 11:14:23;;;;;;;;;;;;;;;;;;2210938;66;1760;-22
2023/08/06 11:16:54;;;;;;;;;;;;;;;;;;2210957;66;1997;-22
2023/08/06 11:19:24;;;;;;;;;;;;;;;;;;2211392;66;3036;-22
2023/08/06 11:21:55;;;;;;;;;;;;;;;;;;2211756;66;1771;-22
2023/08/06 11:24:25;;;;;;;;;;;;;;;;;;2211602;59;2499;-22
2023/08/06 11:26:56;;;;;;;;;;;;;;;;;;2211738;59;1756;-22
2023/08/06 11:29:27;;;;;;;;;;;;;;;;;;2211809;66;1777;-22
2023/08/06 11:32:03;;;;;;;;;;;;;;;;;;2211974;59;1954;-22
2023/08/06 11:34:33;;;;;;;;;;;;;;;;;;2211601;66;1774;-22
2023/08/06 11:37:07;;;;;;;;;;;;;;;;;;2210953;66;2672;-22
2023/08/06 11:39:38;;;;;;;;;;;;;;;;;;2210626;66;1753;-22
2023/08/06 11:42:08;;;;;;;;;;;;;;;;;;2211002;66;2551;-22
2023/08/06 11:44:44;;;;;;;;;;;;;;;;;;2210701;58;1887;-22
2023/08/06 11:47:16;;;;;;;;;;;;;;;;;;2210565;66;1965;-22
2023/08/06 11:49:48;;;;;;;;;;;;;;;;;;2211263;66;1761;-22
2023/08/06 11:52:24;;;;;;;;;;;;;;;;;;2212312;59;2226;-22
2023/08/06 11:55:02;;;;;;;;;;;;;;;;;;2214929;59;2896;-22
2023/08/06 11:57:34;;;;;;;;;;;;;;;;;;2217431;59;1916;-22
2023/08/06 12:00:10;;;;;;;;;;;;;;;;;;2217013;59;1110;-22
2023/08/06 12:02:41;;;;;;;;;;;;;;;;;;2212237;66;1558;-22
2023/08/06 12:05:11;;;;;;;;;;;;;;;;;;2212911;59;1276;-22
2023/08/06 12:07:43;;;;;;;;;;;;;;;;;;2211945;66;1114;-22
2023/08/06 12:10:13;;;;;;;;;;;;;;;;;;2211897;66;1686;-22
2023/08/06 12:12:44;;;;;;;;;;;;;;;;;;2212404;58;1644;-22
2023/08/06 12:15:14;;;;;;;;;;;;;;;;;;2211680;66;1224;-22
2023/08/06 12:17:44;;;;;;;;;;;;;;;;;;2212395;66;1935;-22
2023/08/06 12:20:14;;;;;;;;;;;;;;;;;;2211570;66;1334;-22
2023/08/06 12:22:45;;;;;;;;;;;;;;;;;;2212499;59;1397;-22
2023/08/06 12:25:16;;;;;;;;;;;;;;;;;;2211835;66;1413;-22
2023/08/06 12:27:46;;;;;;;;;;;;;;;;;;2212242;59;1760;-22
2023/08/06 12:30:16;;;;;;;;;;;;;;;;;;2209155;67;1625;-22
2023/08/06 12:32:46;;;;;;;;;;;;;;;;;;2212036;59;1548;-22
2023/08/06 12:35:16;;;;;;;;;;;;;;;;;;2210931;66;1587;-22
2023/08/06 12:37:47;;;;;;;;;;;;;;;;;;2211743;59;1946;-22
2023/08/06 12:40:17;;;;;;;;;;;;;;;;;;2211513;66;1570;-22
2023/08/06 12:42:48;;;;;;;;;;;;;;;;;;2212254;66;1249;-22
2023/08/06 12:45:22;;;;;;;;;;;;;;;;;;2211594;58;1488;-22
2023/08/06 12:47:52;;;;;;;;;;;;;;;;;;2211919;66;1240;-22
2023/08/06 12:50:22;;;;;;;;;;;;;;;;;;2210835;59;1242;-22
2023/08/06 12:52:53;;;;;;;;;;;;;;;;;;2211739;59;1436;-22
2023/08/06 12:55:26;;;;;;;;;;;;;;;;;;2211265;59;2665;-21
2023/08/06 12:57:56;;;;;;;;;;;;;;;;;;2211626;66;2101;-22
2023/08/06 13:00:26;;;;;;;;;;;;;;;;;;2211905;59;2121;-22
2023/08/06 13:02:57;;;;;;;;;;;;;;;;;;2210822;66;1590;-22
2023/08/06 13:05:27;;;;;;;;;;;;;;;;;;2211964;66;2429;-21
2023/08/06 13:08:01;;;;;;;;;;;;;;;;;;2211248;66;2096;-22
2023/08/06 13:10:31;;;;;;;;;;;;;;;;;;2211685;66;1886;-22
2023/08/06 13:13:01;;;;;;;;;;;;;;;;;;2211428;58;2645;-22
2023/08/06 13:15:31;;;;;;;;;;;;;;;;;;2211254;66;1840;-22
2023/08/06 13:18:02;;;;;;;;;;;;;;;;;;2211722;66;1963;-22
2023/08/06 13:20:32;;;;;;;;;;;;;;;;;;2212184;66;1726;-22
2023/08/06 13:23:02;;;;;;;;;;;;;;;;;;2210692;66;1851;-22
2023/08/06 13:25:36;;;;;;;;;;;;;;;;;;2211197;66;1782;-22
2023/08/06 13:28:06;;;;;;;;;;;;;;;;;;2210845;66;1808;-21
2023/08/06 13:30:41;;;;;;;;;;;;;;;;;;2211308;59;1835;-21
2023/08/06 13:33:12;;;;;;;;;;;;;;;;;;2211457;59;2812;-21
2023/08/06 13:35:42;;;;;;;;;;;;;;;;;;2211818;66;1241;-21
2023/08/06 13:38:12;;;;;;;;;;;;;;;;;;2211676;66;1998;-20
2023/08/06 13:40:44;;;;;;;;;;;;;;;;;;2211677;66;1754;-21
2023/08/06 13:43:16;;;;;;;;;;;;;;;;;;2211818;66;1766;-21
2023/08/06 13:45:47;;;;;;;;;;;;;;;;;;2211742;59;1610;-21
2023/08/06 13:48:17;;;;;;;;;;;;;;;;;;2211244;66;1239;-21
2023/08/06 13:50:47;;;;;;;;;;;;;;;;;;2211662;59;1289;-21
2023/08/06 13:53:17;;;;;;;;;;;;;;;;;;2211629;59;2066;-21
2023/08/06 13:55:50;;;;;;;;;;;;;;;;;;2210916;66;3038;-21
2023/08/06 13:58:21;;;;;;;;;;;;;;;;;;2210583;66;3265;-21
2023/08/06 14:00:52;;;;;;;;;;;;;;;;;;2211882;59;2904;-21
2023/08/06 14:03:23;;;;;;;;;;;;;;;;;;2210500;66;2739;-21
2023/08/06 14:05:56;;;;;;;;;;;;;;;;;;2210887;59;2389;-21
2023/08/06 14:08:26;;;;;;;;;;;;;;;;;;2212016;66;1763;-21
2023/08/06 14:10:56;;;;;;;;;;;;;;;;;;2211632;59;1942;-21
2023/08/06 14:13:26;;;;;;;;;;;;;;;;;;2211727;59;2535;-20
2023/08/06 14:15:57;;;;;;;;;;;;;;;;;;2211127;66;2214;-21
2023/08/06 14:18:27;;;;;;;;;;;;;;;;;;2211686;66;1929;-21
2023/08/06 14:20:57;;;;;;;;;;;;;;;;;;2211336;66;1207;-21
2023/08/06 14:23:28;;;;;;;;;;;;;;;;;;2211407;59;1660;-21
2023/08/06 14:25:58;;;;;;;;;;;;;;;;;;2210812;66;1210;-21
2023/08/06 14:28:28;;;;;;;;;;;;;;;;;;2211564;66;1254;-21
2023/08/06 14:30:58;;;;;;;;;;;;;;;;;;2211164;59;1336;-21
2023/08/06 14:33:28;;;;;;;;;;;;;;;;;;2211003;59;1793;-21
2023/08/06 14:35:59;;;;;;;;;;;;;;;;;;2211274;66;1416;-21
2023/08/06 14:38:30;;;;;;;;;;;;;;;;;;2211824;66;1949;-21
2023/08/06 14:41:12;;;;;;;;;;;;;;;;;;2207618;66;1650;-21
2023/08/06 14:43:42;;;;;;;;;;;;;;;;;;2211115;66;1509;-21
2023/08/06 14:46:12;;;;;;;;;;;;;;;;;;2211283;59;1682;-21
2023/08/06 14:48:42;;;;;;;;;;;;;;;;;;2211495;66;1577;-21
2023/08/06 14:51:13;;;;;;;;;;;;;;;;;;2211215;59;1666;-21
2023/08/06 14:53:43;;;;;;;;;;;;;;;;;;2211981;59;1649;-21
2023/08/06 14:56:13;;;;;;;;;;;;;;;;;;2211359;59;2808;-21
2023/08/06 14:58:43;;;;;;;;;;;;;;;;;;2211153;66;2573;-21
2023/08/06 15:01:14;;;;;;;;;;;;;;;;;;2210883;59;2847;-21
2023/08/06 15:03:44;;;;;;;;;;;;;;;;;;2211250;59;1950;-22
2023/08/06 15:06:14;;;;;;;;;;;;;;;;;;2210721;66;2379;-22
2023/08/06 15:08:46;;;;;;;;;;;;;;;;;;2211432;66;2053;-22
2023/08/06 15:11:17;;;;;;;;;;;;;;;;;;2211155;59;1738;-22
2023/08/06 15:13:47;;;;;;;;;;;;;;;;;;2210895;59;2927;-22
2023/08/06 15:16:17;;;;;;;;;;;;;;;;;;2211470;66;2666;-22
2023/08/06 15:18:48;;;;;;;;;;;;;;;;;;2209876;66;2211;-22
2023/08/06 15:21:18;;;;;;;;;;;;;;;;;;2211659;66;2045;-22
2023/08/06 15:23:49;;;;;;;;;;;;;;;;;;2211149;66;2218;-22
2023/08/06 15:26:20;;;;;;;;;;;;;;;;;;2211298;66;2377;-22
2023/08/06 15:28:50;;;;;;;;;;;;;;;;;;2211818;66;1888;-22
2023/08/06 15:31:21;;;;;;;;;;;;;;;;;;2211634;59;1977;-22
2023/08/06 15:33:51;;;;;;;;;;;;;;;;;;2211075;59;1870;-22
2023/08/06 15:36:22;;;;;;;;;;;;;;;;;;2211932;66;2701;-22
2023/08/06 15:38:52;;;;;;;;;;;;;;;;;;2212203;66;1968;-22
2023/08/06 15:41:22;;;;;;;;;;;;;;;;;;2212440;66;2381;-22
2023/08/06 15:43:52;;;;;;;;;;;;;;;;;;2211818;59;1755;-22
2023/08/06 15:46:22;;;;;;;;;;;;;;;;;;2212269;58;1511;-22
2023/08/06 15:48:53;;;;;;;;;;;;;;;;;;2212593;66;1996;-22
2023/08/06 15:51:23;;;;;;;;;;;;;;;;;;2211945;59;1549;-22
2023/08/06 15:53:53;;;;;;;;;;;;;;;;;;2211901;59;1431;-22
2023/08/06 15:56:23;;;;;;;;;;;;;;;;;;2212116;59;1941;-22
2023/08/06 15:58:54;;;;;;;;;;;;;;;;;;2210264;66;2534;-22
2023/08/06 16:01:24;;;;;;;;;;;;;;;;;;2211043;59;1912;-22
2023/08/06 16:03:54;;;;;;;;;;;;;;;;;;2211412;59;1884;-22
2023/08/06 16:06:24;;;;;;;;;;;;;;;;;;2212007;66;2012;-22
2023/08/06 16:08:55;;;;;;;;;;;;;;;;;;2210971;66;1956;-22
2023/08/06 16:11:25;;;;;;;;;;;;;;;;;;2211847;58;2398;-22
2023/08/06 16:13:55;;;;;;;;;;;;;;;;;;2211775;66;1803;-22
2023/08/06 16:16:25;;;;;;;;;;;;;;;;;;2211763;66;2787;-22
2023/08/06 16:18:55;;;;;;;;;;;;;;;;;;2211192;66;1732;-22
2023/08/06 16:21:26;;;;;;;;;;;;;;;;;;2212047;66;1919;-22
2023/08/06 16:23:56;;;;;;;;;;;;;;;;;;2211094;59;1828;-22
2023/08/06 16:26:27;;;;;;;;;;;;;;;;;;2212204;59;1769;-22
2023/08/06 16:28:57;;;;;;;;;;;;;;;;;;2212232;66;1799;-22
2023/08/06 16:31:27;;;;;;;;;;;;;;;;;;2212147;59;1765;-22
2023/08/06 16:33:57;;;;;;;;;;;;;;;;;;2211230;59;2076;-22
2023/08/06 16:36:28;;;;;;;;;;;;;;;;;;2211835;66;1957;-22
2023/08/06 16:38:58;;;;;;;;;;;;;;;;;;2211170;66;2011;-22
2023/08/06 16:41:28;;;;;;;;;;;;;;;;;;2212173;66;1924;-22
2023/08/06 16:43:58;;;;;;;;;;;;;;;;;;2211799;66;2055;-22
2023/08/06 16:46:29;;;;;;;;;;;;;;;;;;2213795;59;2639;-22
2023/08/06 16:48:59;;;;;;;;;;;;;;;;;;2211993;66;2222;-22
2023/08/06 16:51:29;;;;;;;;;;;;;;;;;;2213498;59;2400;-22
2023/08/06 16:53:59;;;;;;;;;;;;;;;;;;2211501;59;1870;-22
2023/08/06 16:56:30;;;;;;;;;;;;;;;;;;2212683;59;2543;-22
2023/08/06 16:59:03;;;;;;;;;;;;;;;;;;2210918;59;2498;-22
2023/08/06 17:01:35;;;;;;;;;;;;;;;;;;2211646;59;2485;-22
2023/08/06 17:04:05;;;;;;;;;;;;;;;;;;2210920;66;2167;-21
2023/08/06 17:06:35;;;;;;;;;;;;;;;;;;2211294;66;1971;-22
2023/08/06 17:09:06;;;;;;;;;;;;;;;;;;2210908;66;2040;-21
2023/08/06 17:11:36;;;;;;;;;;;;;;;;;;2210908;58;2030;-21
2023/08/06 17:14:06;;;;;;;;;;;;;;;;;;2211194;66;1818;-21
2023/08/06 17:16:36;;;;;;;;;;;;;;;;;;2211257;66;1999;-21
2023/08/06 17:19:07;;;;;;;;;;;;;;;;;;2210941;66;2420;-21
2023/08/06 17:21:37;;;;;;;;;;;;;;;;;;2211885;66;1863;-22
2023/08/06 17:24:08;;;;;;;;;;;;;;;;;;2210821;59;2749;-22
2023/08/06 17:26:38;;;;;;;;;;;;;;;;;;2211275;59;2059;-21
2023/08/06 17:29:08;;;;;;;;;;;;;;;;;;2210824;66;1930;-21
2023/08/06 17:31:39;;;;;;;;;;;;;;;;;;2211477;66;2737;-21